Time;durP1;ratioP1;P1;durP2;ratioP2;P2;SDS_P1;SDS_P2;PMS_P1;PMS_P2;Temp;Humidity;BMP_temperature;BMP_pressure;BME280_temperature;BME280_humidity;BME280_pressure;Samples;Min_cycle;Max_cycle;Signal;HPM_P1;HPM_P2
2022/09/27 00:00:24;;;;;;;5.22;2.13;;;;;;;11.60;91.61;100009.03;5097085;28;20054;-69
2022/09/27 00:02:50;;;;;;;4.70;2.28;;;;;;;11.62;90.81;100015.97;5115491;28;20019;-69
2022/09/27 00:05:16;;;;;;;11.00;2.63;;;;;;;11.60;91.00;100009.88;5115091;28;20456;-69
2022/09/27 00:07:43;;;;;;;2.70;1.45;;;;;;;11.44;91.67;100007.81;5115181;28;20069;-69
2022/09/27 00:10:09;;;;;;;4.20;1.73;;;;;;;11.05;94.47;99990.91;5114990;28;20119;-70
2022/09/27 00:12:35;;;;;;;4.05;1.90;;;;;;;10.95;97.43;99992.78;5114639;28;20031;-70
2022/09/27 00:15:01;;;;;;;4.30;1.42;;;;;;;10.94;99.19;99996.47;5114638;28;20032;-70
2022/09/27 00:17:28;;;;;;;2.95;1.40;;;;;;;10.88;97.62;100001.53;5096693;28;20039;-71
2022/09/27 00:19:57;;;;;;;3.03;1.10;;;;;;;10.94;96.00;99992.91;5115018;28;20112;-70
2022/09/27 00:22:23;;;;;;;4.05;1.08;;;;;;;10.95;97.01;100000.84;5114688;28;20031;-71
2022/09/27 00:24:49;;;;;;;5.20;1.38;;;;;;;10.90;94.57;100015.69;5114766;28;20038;-70
2022/09/27 00:27:15;;;;;;;1.58;0.80;;;;;;;10.91;93.80;100012.00;5096240;28;20387;-70
2022/09/27 00:29:40;;;;;;;2.47;1.10;;;;;;;10.93;92.71;100005.53;5096333;28;20115;-70
2022/09/27 00:32:07;;;;;;;5.22;0.70;;;;;;;10.91;92.37;100002.09;5096314;28;20036;-72
2022/09/27 00:34:32;;;;;;;2.33;1.10;;;;;;;10.96;92.24;100010.59;5114351;28;20106;-70
2022/09/27 00:36:58;;;;;;;4.10;0.93;;;;;;;11.01;91.51;100012.84;5114593;28;20123;-70
2022/09/27 00:39:24;;;;;;;3.35;0.77;;;;;;;10.95;92.65;100008.91;5095887;28;20077;-71
2022/09/27 00:41:49;;;;;;;2.67;1.00;;;;;;;10.98;91.36;100014.00;5114311;28;20106;-70
2022/09/27 00:44:37;;;;;;;3.70;0.80;;;;;;;11.17;88.06;100017.66;5096378;28;20055;-70
2022/09/27 00:47:21;;;;;;;3.03;0.82;;;;;;;11.19;88.09;100012.97;5114441;28;20051;-70
2022/09/27 00:49:49;;;;;;;3.17;0.90;;;;;;;11.18;89.23;100016.66;5096149;28;20032;-70
2022/09/27 00:52:20;;;;;;;1.65;0.90;;;;;;;11.13;89.56;100020.63;5114817;28;20044;-70
2022/09/27 00:54:51;;;;;;;2.22;0.82;;;;;;;11.14;90.29;100024.16;5114558;28;20036;-71
2022/09/27 00:57:20;;;;;;;3.65;1.00;;;;;;;11.12;89.86;100021.63;5095787;28;20020;-70
2022/09/27 00:59:54;;;;;;;3.40;1.15;;;;;;;11.17;90.14;100021.19;5114860;28;20076;-70
2022/09/27 01:02:20;;;;;;;4.15;1.27;;;;;;;11.20;90.33;100020.03;5114250;28;20023;-70
2022/09/27 01:04:48;;;;;;;3.75;1.00;;;;;;;11.17;90.46;100029.25;5095573;28;20039;-69
2022/09/27 01:07:14;;;;;;;2.88;1.48;;;;;;;11.11;91.52;100030.69;5113948;28;20034;-69
2022/09/27 01:09:41;;;;;;;2.00;0.70;;;;;;;11.12;91.77;100032.38;5095838;28;20031;-70
2022/09/27 01:12:24;;;;;;;4.13;1.00;;;;;;;11.18;91.55;100038.19;5113228;28;20031;-70
2022/09/27 01:14:52;;;;;;;5.63;1.20;;;;;;;11.15;91.30;100034.78;5095495;28;20031;-71
2022/09/27 01:17:36;;;;;;;3.28;1.00;;;;;;;11.13;91.90;100028.72;5095245;28;20028;-70
2022/09/27 01:20:37;;;;;;;6.93;1.55;;;;;;;11.14;93.80;100032.25;5095605;28;20109;-70
2022/09/27 01:23:39;;;;;;;3.10;1.13;;;;;;;11.11;94.80;100036.06;5095098;28;20023;-71
2022/09/27 01:26:34;;;;;;;2.60;1.13;;;;;;;11.15;94.73;100028.56;5113898;28;20031;-70
2022/09/27 01:29:14;;;;;;;5.03;1.20;;;;;;;11.16;94.55;100032.94;5094941;28;20158;-71
2022/09/27 01:32:05;;;;;;;3.70;1.13;;;;;;;11.14;94.21;100024.16;5113374;28;20031;-70
2022/09/27 01:34:47;;;;;;;3.33;1.33;;;;;;;11.07;94.40;100023.03;5113410;28;20035;-70
2022/09/27 01:37:29;;;;;;;5.68;1.15;;;;;;;11.03;93.95;100025.16;5094863;28;20035;-70
2022/09/27 01:40:23;;;;;;;4.80;1.60;;;;;;;11.03;93.39;100027.84;5094874;28;20031;-71
2022/09/27 01:42:58;;;;;;;5.45;1.42;;;;;;;11.09;93.34;100021.94;5113395;28;20023;-70
2022/09/27 01:45:26;;;;;;;3.65;1.38;;;;;;;11.06;93.93;100016.81;5094824;28;20396;-70
2022/09/27 01:47:56;;;;;;;5.15;1.20;;;;;;;11.10;93.42;100015.53;5113455;28;20032;-69
2022/09/27 01:50:32;;;;;;;5.07;1.27;;;;;;;11.21;92.84;100022.59;5113023;28;20039;-71
2022/09/27 01:53:04;;;;;;;6.20;1.50;;;;;;;11.17;92.95;100033.78;5094739;28;20122;-71
2022/09/27 01:55:35;;;;;;;7.07;1.90;;;;;;;11.19;93.19;100042.56;5094940;28;20028;-70
2022/09/27 01:58:11;;;;;;;3.85;1.30;;;;;;;11.14;93.62;100038.47;5114112;28;20085;-71
2022/09/27 02:00:42;;;;;;;6.32;1.80;;;;;;;11.13;93.50;100044.84;5113152;28;20476;-70
2022/09/27 02:03:19;;;;;;;4.95;1.00;;;;;;;11.05;93.55;100036.63;5094667;28;20480;-71
2022/09/27 02:05:56;;;;;;;4.55;1.10;;;;;;;10.98;93.79;100038.19;5112750;28;20484;-70
2022/09/27 02:08:35;;;;;;;4.38;1.48;;;;;;;10.97;94.53;100039.19;5113136;28;20380;-70
2022/09/27 02:11:05;;;;;;;5.80;1.80;;;;;;;10.91;94.62;100045.13;5094307;28;20506;-72
2022/09/27 02:13:37;;;;;;;5.53;1.60;;;;;;;10.93;95.09;100043.19;5094566;28;20162;-70
2022/09/27 02:16:18;;;;;;;13.40;2.40;;;;;;;10.83;95.18;100045.00;5094969;28;20028;-70
2022/09/27 02:18:46;;;;;;;6.22;1.80;;;;;;;10.85;95.27;100051.09;5094407;28;20488;-70
2022/09/27 02:21:15;;;;;;;4.13;1.40;;;;;;;10.92;94.66;100046.84;5112799;28;20046;-70
2022/09/27 02:23:51;;;;;;;5.57;1.60;;;;;;;10.93;94.93;100048.56;5111517;28;20068;-70
2022/09/27 02:26:25;;;;;;;6.18;1.40;;;;;;;11.00;94.57;100041.59;5094591;28;20035;-70
2022/09/27 02:29:04;;;;;;;3.80;1.35;;;;;;;11.11;94.17;100052.22;5112764;28;20108;-70
2022/09/27 02:31:30;;;;;;;6.93;1.77;;;;;;;11.07;94.01;100045.41;5112743;28;20104;-71
2022/09/27 02:34:04;;;;;;;4.25;1.17;;;;;;;11.12;94.15;100048.53;5112414;28;20451;-70
2022/09/27 02:36:30;;;;;;;4.15;1.20;;;;;;;11.13;93.88;100047.53;5094396;28;20036;-70
2022/09/27 02:38:55;;;;;;;7.60;1.67;;;;;;;11.18;94.45;100057.00;5094389;28;20396;-69
2022/09/27 02:41:22;;;;;;;4.53;1.50;;;;;;;11.14;94.29;100051.06;5113046;28;20068;-69
2022/09/27 02:43:59;;;;;;;6.85;1.73;;;;;;;11.20;94.40;100049.63;5094274;28;20027;-69
2022/09/27 02:46:57;;;;;;;5.72;1.58;;;;;;;11.29;93.56;100055.03;5112473;28;20036;-70
2022/09/27 02:49:34;;;;;;;5.75;1.42;;;;;;;11.30;94.11;100055.88;5053659;28;20480;-72
2022/09/27 02:52:27;;;;;;;4.70;1.77;;;;;;;11.24;94.10;100046.50;5112229;28;20050;-71
2022/09/27 02:55:02;;;;;;;6.35;1.63;;;;;;;11.25;94.56;100048.22;5112556;28;20054;-69
2022/09/27 02:57:50;;;;;;;3.28;1.40;;;;;;;11.19;94.97;100053.31;5112523;28;20027;-70
2022/09/27 03:00:19;;;;;;;8.95;1.58;;;;;;;11.17;95.33;100049.94;5093904;28;20047;-70
2022/09/27 03:03:03;;;;;;;6.22;2.25;;;;;;;11.19;95.70;100056.00;5093797;28;20118;-72
2022/09/27 03:05:48;;;;;;;6.70;1.75;;;;;;;11.23;95.12;100060.09;5093722;28;20414;-71
2022/09/27 03:08:14;;;;;;;5.03;1.77;;;;;;;11.25;95.40;100058.97;5093954;28;20479;-71
2022/09/27 03:10:39;;;;;;;4.32;1.83;;;;;;;11.22;95.81;100053.03;5112315;28;20537;-70
2022/09/27 03:13:05;;;;;;;5.18;1.65;;;;;;;11.22;95.36;100058.41;5093590;28;20023;-69
2022/09/27 03:15:31;;;;;;;5.47;1.60;;;;;;;11.24;94.58;100059.97;5112104;28;20035;-70
2022/09/27 03:17:57;;;;;;;7.00;1.52;;;;;;;11.29;94.65;100054.16;5112014;28;20099;-70
2022/09/27 03:20:22;;;;;;;9.43;1.60;;;;;;;11.29;94.34;100055.03;5093856;28;20031;-70
2022/09/27 03:22:48;;;;;;;9.23;2.40;;;;;;;11.28;94.45;100053.31;5112162;28;20035;-70
2022/09/27 03:25:14;;;;;;;4.90;1.67;;;;;;;11.31;94.25;100055.72;5093525;28;20027;-71
2022/09/27 03:27:40;;;;;;;4.82;1.40;;;;;;;11.35;94.08;100058.97;5093766;28;20035;-70
2022/09/27 03:30:06;;;;;;;7.18;1.67;;;;;;;11.37;94.03;100051.59;5093745;28;20125;-70
2022/09/27 03:32:32;;;;;;;4.20;1.30;;;;;;;11.40;94.01;100048.59;5111675;28;20043;-70
2022/09/27 03:34:58;;;;;;;3.28;1.30;;;;;;;11.41;93.29;100047.59;5113361;28;20032;-71
2022/09/27 03:37:28;;;;;;;4.25;1.70;;;;;;;11.43;94.19;100061.78;5115936;28;20036;-70
2022/09/27 03:39:54;;;;;;;11.25;2.15;;;;;;;11.42;93.84;100054.69;5097445;28;20118;-72
2022/09/27 03:42:20;;;;;;;5.88;1.55;;;;;;;11.39;94.35;100060.38;5115819;28;20031;-69
2022/09/27 03:44:45;;;;;;;6.20;1.55;;;;;;;11.34;95.14;100059.97;5097300;28;20027;-71
2022/09/27 03:47:11;;;;;;;2.78;1.40;;;;;;;11.32;95.41;100061.94;5096822;28;20047;-71
2022/09/27 03:49:37;;;;;;;6.28;1.52;;;;;;;11.24;95.57;100075.25;5097170;28;20480;-71
2022/09/27 03:52:03;;;;;;;9.25;3.00;;;;;;;11.15;96.50;100069.75;5115425;28;20058;-73
2022/09/27 03:54:28;;;;;;;8.15;1.40;;;;;;;11.15;97.15;100064.38;5115235;28;20043;-72
2022/09/27 03:56:55;;;;;;;6.47;1.58;;;;;;;11.13;96.42;100061.00;5096923;28;20035;-72
2022/09/27 03:59:20;;;;;;;4.72;1.73;;;;;;;11.10;96.23;100061.28;5115020;28;20027;-71
2022/09/27 04:01:46;;;;;;;5.53;1.25;;;;;;;11.09;96.35;100064.13;5097111;28;20046;-71
2022/09/27 04:04:12;;;;;;;5.43;1.95;;;;;;;11.05;95.82;100063.53;5096985;28;20112;-73
2022/09/27 04:06:37;;;;;;;4.63;0.93;;;;;;;11.10;94.48;100050.53;5114940;28;20031;-71
2022/09/27 04:09:03;;;;;;;3.38;1.10;;;;;;;11.04;93.78;100053.75;5096551;28;20027;-71
2022/09/27 04:11:28;;;;;;;5.55;1.48;;;;;;;11.05;93.12;100066.22;5115032;28;20024;-71
2022/09/27 04:13:55;;;;;;;2.88;1.15;;;;;;;11.01;93.31;100066.66;5096646;28;20122;-70
2022/09/27 04:16:21;;;;;;;5.03;1.00;;;;;;;11.09;91.96;100059.59;5096530;28;20031;-70
2022/09/27 04:18:47;;;;;;;2.40;0.90;;;;;;;11.14;91.46;100062.69;5096404;28;20059;-72
2022/09/27 04:21:12;;;;;;;1.52;1.02;;;;;;;11.20;91.76;100071.16;5096658;28;20475;-73
2022/09/27 04:23:38;;;;;;;4.35;1.00;;;;;;;11.21;92.67;100068.31;5115026;28;20070;-73
2022/09/27 04:26:04;;;;;;;5.80;1.20;;;;;;;11.18;93.42;100065.09;5114569;28;20092;-71
2022/09/27 04:28:31;;;;;;;7.15;1.38;;;;;;;11.17;93.93;100071.47;5095914;28;20407;-71
2022/09/27 04:30:56;;;;;;;4.22;1.38;;;;;;;11.13;93.72;100071.75;5096179;28;20471;-71
2022/09/27 04:33:25;;;;;;;2.92;2.05;;;;;;;11.11;94.54;100072.88;5096083;28;20035;-72
2022/09/27 04:38:35;;;;;;;3.03;1.35;;;;;;;11.10;93.74;100074.72;5114684;28;20062;-70
2022/09/27 04:41:00;;;;;;;3.47;1.10;;;;;;;11.11;93.86;100084.50;5095573;28;20480;-71
2022/09/27 04:43:27;;;;;;;3.03;1.27;;;;;;;11.13;93.50;100081.66;5114310;28;20024;-72
2022/09/27 04:45:53;;;;;;;2.53;0.90;;;;;;;11.18;92.96;100074.00;5113483;28;20027;-71
2022/09/27 04:48:18;;;;;;;2.63;1.30;;;;;;;11.19;93.12;100080.22;5095251;28;20073;-70
2022/09/27 04:50:44;;;;;;;1.95;1.30;;;;;;;11.20;93.03;100076.53;5095502;28;20055;-71
2022/09/27 04:53:14;;;;;;;6.65;2.00;;;;;;;11.15;93.62;100075.13;5113795;28;20058;-72
2022/09/27 04:55:44;;;;;;;6.70;1.52;;;;;;;11.13;93.68;100081.66;5114208;28;20518;-72
2022/09/27 04:58:12;;;;;;;7.05;1.40;;;;;;;11.14;93.32;100077.97;5095633;28;20070;-72
2022/09/27 05:00:39;;;;;;;5.55;1.33;;;;;;;11.21;93.27;100078.25;5113603;28;20032;-72
2022/09/27 05:03:04;;;;;;;3.95;1.45;;;;;;;11.21;93.17;100089.00;5113865;28;20034;-72
2022/09/27 05:05:30;;;;;;;6.65;1.92;;;;;;;11.23;93.32;100087.88;5113805;28;20031;-71
2022/09/27 05:07:56;;;;;;;6.55;1.80;;;;;;;11.30;93.37;100083.63;5095279;28;20515;-70
2022/09/27 05:10:22;;;;;;;4.45;1.63;;;;;;;11.33;93.09;100090.56;5113392;28;20049;-70
2022/09/27 05:12:48;;;;;;;5.13;1.77;;;;;;;11.37;92.47;100089.28;5095109;28;20036;-72
2022/09/27 05:15:14;;;;;;;4.85;2.13;;;;;;;11.40;92.31;100094.34;5094795;28;20031;-70
2022/09/27 05:17:39;;;;;;;5.85;1.80;;;;;;;11.38;91.99;100090.97;5113527;28;20098;-72
2022/09/27 05:20:05;;;;;;;3.40;1.33;;;;;;;11.48;92.10;100097.19;5112833;28;20027;-71
2022/09/27 05:22:31;;;;;;;2.65;1.23;;;;;;;11.54;91.56;100095.75;5094988;28;20036;-70
2022/09/27 05:24:56;;;;;;;4.88;1.75;;;;;;;11.56;91.34;100089.22;5112995;28;20081;-71
2022/09/27 05:27:22;;;;;;;3.85;1.63;;;;;;;11.61;90.71;100080.72;5113790;28;20038;-71
2022/09/27 05:29:49;;;;;;;4.10;1.23;;;;;;;11.67;90.03;100081.00;5112920;28;20066;-72
2022/09/27 05:32:15;;;;;;;6.82;1.27;;;;;;;11.70;89.70;100091.47;5093977;28;20083;-72
2022/09/27 05:34:40;;;;;;;6.28;1.40;;;;;;;11.75;89.64;100083.78;5093989;28;20031;-71
2022/09/27 05:37:06;;;;;;;4.07;1.27;;;;;;;11.81;88.93;100086.94;5093985;28;20027;-71
2022/09/27 05:39:32;;;;;;;3.78;1.60;;;;;;;11.83;88.58;100095.72;5093892;28;20399;-72
2022/09/27 05:41:58;;;;;;;6.22;1.50;;;;;;;11.90;88.15;100081.50;5112713;28;20035;-71
2022/09/27 05:44:25;;;;;;;3.63;1.55;;;;;;;11.96;87.13;100088.16;5113157;28;20110;-71
2022/09/27 05:46:51;;;;;;;4.20;1.02;;;;;;;11.98;87.47;100078.94;5112490;28;20480;-70
2022/09/27 05:49:16;;;;;;;3.78;1.00;;;;;;;11.99;87.44;100087.84;5094154;28;20412;-73
2022/09/27 05:51:42;;;;;;;4.22;1.40;;;;;;;12.01;86.75;100088.56;5093950;28;20051;-71
2022/09/27 05:54:08;;;;;;;3.03;0.90;;;;;;;12.05;86.85;100084.56;5111466;28;20092;-72
2022/09/27 05:56:33;;;;;;;5.45;1.77;;;;;;;12.11;86.54;100078.59;5112357;28;20038;-72
2022/09/27 05:58:59;;;;;;;4.15;0.90;;;;;;;12.17;85.79;100083.38;5111847;28;20031;-72
2022/09/27 06:01:26;;;;;;;3.38;1.52;;;;;;;12.22;85.58;100086.47;5111391;28;20089;-72
2022/09/27 06:03:53;;;;;;;2.05;1.25;;;;;;;12.27;85.37;100094.97;5110890;28;20480;-74
2022/09/27 06:06:21;;;;;;;7.82;1.58;;;;;;;12.34;84.98;100098.75;5093028;28;20548;-72
2022/09/27 06:08:48;;;;;;;3.60;1.00;;;;;;;12.38;84.49;100088.50;5093136;28;20039;-74
2022/09/27 06:11:13;;;;;;;8.02;1.08;;;;;;;12.44;85.32;100098.72;5112150;28;20024;-72
2022/09/27 06:13:39;;;;;;;2.67;0.90;;;;;;;12.46;85.50;100087.78;5094133;28;20395;-73
2022/09/27 06:16:06;;;;;;;2.28;0.93;;;;;;;12.46;85.65;100099.41;5093328;28;20027;-73
2022/09/27 06:18:32;;;;;;;4.93;1.50;;;;;;;12.48;85.82;100104.63;5093217;28;20421;-73
2022/09/27 06:21:02;;;;;;;3.03;0.85;;;;;;;12.54;85.37;100109.41;5111625;28;20067;-71
2022/09/27 06:23:32;;;;;;;2.92;1.05;;;;;;;12.58;85.21;100097.31;5093219;28;20115;-73
2022/09/27 06:26:03;;;;;;;3.42;0.82;;;;;;;12.62;84.34;100114.91;5112378;28;20032;-71
2022/09/27 06:28:29;;;;;;;3.88;1.40;;;;;;;12.61;84.81;100116.78;5112413;28;20384;-75
2022/09/27 06:30:56;;;;;;;3.20;1.17;;;;;;;12.67;84.91;100104.50;5112634;28;20032;-73
2022/09/27 06:33:21;;;;;;;5.60;0.90;;;;;;;12.67;84.37;100112.59;5096488;28;20039;-73
2022/09/27 06:35:48;;;;;;;4.80;1.52;;;;;;;12.68;84.56;100108.91;5117830;28;20119;-74
2022/09/27 06:38:18;;;;;;;3.67;0.80;;;;;;;12.72;84.20;100113.00;5104925;28;20034;-72
2022/09/27 06:40:45;;;;;;;1.90;1.00;;;;;;;12.70;84.66;100111.44;5113239;28;20024;-72
2022/09/27 06:43:13;;;;;;;2.25;1.17;;;;;;;12.77;84.38;100116.09;5111590;28;20084;-73
2022/09/27 06:45:41;;;;;;;4.47;1.30;;;;;;;12.78;84.19;100112.41;5111757;28;20028;-73
2022/09/27 06:48:09;;;;;;;7.55;1.13;;;;;;;12.88;84.42;100121.25;5111510;28;20110;-73
2022/09/27 06:50:39;;;;;;;7.25;2.22;;;;;;;12.90;84.01;100127.34;5111411;28;20097;-72
2022/09/27 06:53:08;;;;;;;4.57;1.25;;;;;;;13.13;83.16;100122.34;5092722;28;20476;-73
2022/09/27 06:55:33;;;;;;;5.75;0.82;;;;;;;13.23;82.40;100130.38;5093147;28;20101;-72
2022/09/27 07:00:47;;;;;;;4.22;1.20;;;;;;;13.32;81.89;100129.47;5111285;28;20039;-73
2022/09/27 07:03:13;;;;;;;6.28;1.30;;;;;;;13.46;81.63;100134.31;5092594;28;20137;-74
2022/09/27 07:05:43;;;;;;;4.68;0.98;;;;;;;13.63;81.48;100132.59;5093931;28;20059;-72
2022/09/27 07:08:10;;;;;;;4.32;1.15;;;;;;;13.80;80.76;100128.16;5111479;28;20103;-73
2022/09/27 07:10:37;;;;;;;3.30;1.45;;;;;;;13.84;80.39;100129.53;5114650;28;20027;-72
2022/09/27 07:13:07;;;;;;;4.30;2.10;;;;;;;13.90;79.54;100128.88;5115377;28;20115;-72
2022/09/27 07:15:39;;;;;;;3.15;1.15;;;;;;;13.83;79.99;100138.63;5115423;28;20031;-73
2022/09/27 07:18:06;;;;;;;8.02;1.85;;;;;;;13.74;80.52;100136.88;5115568;28;20028;-72
2022/09/27 07:20:35;;;;;;;4.35;1.20;;;;;;;13.90;79.55;100134.28;5096652;28;20092;-74
2022/09/27 07:23:02;;;;;;;4.55;1.08;;;;;;;13.84;79.05;100137.63;5115018;28;20086;-73
2022/09/27 07:25:28;;;;;;;5.03;1.38;;;;;;;13.96;79.39;100139.06;5115409;28;20024;-71
2022/09/27 07:27:53;;;;;;;6.03;1.80;;;;;;;13.87;79.17;100133.75;5096579;28;20404;-71
2022/09/27 07:30:20;;;;;;;4.45;1.08;;;;;;;13.71;80.31;100142.59;5115305;28;20038;-73
2022/09/27 07:32:46;;;;;;;4.78;1.10;;;;;;;13.91;79.74;100138.69;5096617;28;20031;-71
2022/09/27 07:35:14;;;;;;;3.58;1.67;;;;;;;13.81;79.51;100146.06;5115981;28;20034;-72
2022/09/27 07:37:41;;;;;;;7.07;1.08;;;;;;;13.86;79.50;100143.72;5115704;28;20027;-71
2022/09/27 07:40:09;;;;;;;5.10;1.08;;;;;;;13.98;78.96;100142.44;5096921;28;20058;-70
2022/09/27 07:42:39;;;;;;;4.72;1.08;;;;;;;14.00;78.19;100151.25;5114705;28;20031;-72
2022/09/27 07:45:07;;;;;;;3.63;1.10;;;;;;;14.11;78.62;100150.13;5097147;28;20031;-71
2022/09/27 07:47:32;;;;;;;1.77;0.82;;;;;;;14.02;78.56;100137.56;5115141;28;20488;-72
2022/09/27 07:49:58;;;;;;;4.80;0.90;;;;;;;13.84;78.98;100146.59;5115236;28;20048;-73
2022/09/27 07:52:24;;;;;;;4.95;1.70;;;;;;;13.90;79.29;100150.50;5114839;28;20118;-73
2022/09/27 07:54:49;;;;;;;6.45;1.13;;;;;;;13.70;80.05;100149.00;5114640;28;20080;-73
2022/09/27 07:57:16;;;;;;;7.40;1.00;;;;;;;13.71;80.63;100156.09;5114806;28;20602;-72
2022/09/27 07:59:42;;;;;;;5.32;1.08;;;;;;;13.84;79.95;100153.84;5115092;28;20027;-72
2022/09/27 08:02:15;;;;;;;3.08;1.10;;;;;;;13.87;79.62;100150.81;5114434;28;20035;-73
2022/09/27 08:04:42;;;;;;;3.53;0.95;;;;;;;13.91;79.19;100156.75;5115038;28;20024;-72
2022/09/27 08:07:09;;;;;;;2.53;1.00;;;;;;;13.75;79.97;100158.31;5114703;28;20028;-72
2022/09/27 08:09:35;;;;;;;2.28;1.10;;;;;;;13.80;80.40;100160.56;5096270;28;20544;-72
2022/09/27 08:12:03;;;;;;;4.00;0.90;;;;;;;13.84;79.96;100156.53;5114813;28;20028;-72
2022/09/27 08:14:29;;;;;;;4.85;0.90;;;;;;;13.79;80.65;100166.97;5114711;28;20027;-72
2022/09/27 08:16:56;;;;;;;5.35;1.00;;;;;;;13.74;80.72;100166.59;5114722;28;20035;-73
2022/09/27 08:19:22;;;;;;;4.10;1.42;;;;;;;13.77;80.67;100172.53;5114490;28;20039;-73
2022/09/27 08:21:50;;;;;;;4.15;1.35;;;;;;;13.80;79.86;100171.38;5095795;28;20032;-71
2022/09/27 08:24:15;;;;;;;3.85;0.90;;;;;;;13.82;79.95;100174.78;5114082;28;20030;-73
2022/09/27 08:26:41;;;;;;;3.65;0.90;;;;;;;13.76;80.84;100170.81;5114209;28;20139;-73
2022/09/27 08:29:07;;;;;;;4.57;1.40;;;;;;;13.76;79.89;100170.81;5095489;28;20028;-72
2022/09/27 08:31:32;;;;;;;5.03;1.50;;;;;;;13.70;80.32;100170.63;5113854;28;20442;-72
2022/09/27 08:33:58;;;;;;;5.28;1.55;;;;;;;13.72;79.06;100168.59;5114268;28;20032;-72
2022/09/27 08:36:24;;;;;;;6.47;1.15;;;;;;;13.75;79.72;100162.88;5095785;28;20030;-70
2022/09/27 08:38:50;;;;;;;2.42;1.08;;;;;;;13.73;79.59;100162.19;5114144;28;20448;-72
2022/09/27 08:41:33;;;;;;;2.80;1.70;;;;;;;13.75;80.10;100168.28;5114262;28;20027;-72
2022/09/27 08:44:30;;;;;;;5.68;1.80;;;;;;;13.78;79.67;100171.53;5096017;28;20027;-71
2022/09/27 08:47:08;;;;;;;3.50;1.20;;;;;;;13.83;78.45;100165.66;5095450;28;20081;-74
2022/09/27 08:49:51;;;;;;;5.82;1.88;;;;;;;13.95;79.60;100168.97;5095188;28;20112;-73
2022/09/27 08:52:26;;;;;;;4.10;1.90;;;;;;;14.01;80.05;100174.56;5091574;28;20051;-73
2022/09/27 08:54:54;;;;;;;6.78;2.70;;;;;;;14.09;79.41;100171.88;5110613;28;20068;-73
2022/09/27 08:57:22;;;;;;;4.63;2.17;;;;;;;14.08;79.47;100175.59;5091388;28;20110;-73
2022/09/27 09:00:11;;;;;;;4.30;2.40;;;;;;;13.97;78.99;100175.88;5093293;28;20368;-73
2022/09/27 09:02:37;;;;;;;7.05;2.38;;;;;;;14.08;79.13;100177.47;5093597;28;20108;-75
2022/09/27 09:05:13;;;;;;;5.65;2.25;;;;;;;13.92;78.96;100180.91;5112265;28;20484;-73
2022/09/27 09:07:42;;;;;;;6.55;2.55;;;;;;;13.95;78.96;100191.41;5112761;28;20032;-73
2022/09/27 09:13:32;;;;;;;6.75;2.42;;;;;;;13.83;79.70;100195.38;5111672;28;20143;-73
2022/09/27 09:16:30;;;;;;;5.95;2.33;;;;;;;13.90;80.38;100193.72;5093145;28;20121;-73
2022/09/27 09:19:17;;;;;;;4.30;3.20;;;;;;;13.96;80.63;100203.94;5073486;28;20076;-73
2022/09/27 09:22:04;;;;;;;5.57;3.63;;;;;;;13.93;80.82;100198.81;5109871;28;20080;-72
2022/09/27 09:24:45;;;;;;;5.25;3.13;;;;;;;14.08;80.98;100191.81;5092742;28;20032;-72
2022/09/27 09:27:28;;;;;;;7.53;3.45;;;;;;;14.05;81.19;100181.34;5093907;28;20031;-73
2022/09/27 09:30:04;;;;;;;6.45;3.50;;;;;;;14.00;81.63;100193.63;5093951;28;20027;-72
2022/09/27 09:33:07;;;;;;;4.15;3.10;;;;;;;14.11;80.52;100186.13;5111585;28;20031;-72
2022/09/27 09:35:44;;;;;;;5.07;3.17;;;;;;;14.18;81.41;100177.38;5094305;28;20514;-74
2022/09/27 09:38:17;;;;;;;5.65;3.97;;;;;;;14.26;81.09;100189.06;5094418;28;20034;-74
2022/09/27 09:41:20;;;;;;;6.45;3.95;;;;;;;14.29;80.77;100182.50;5094200;28;20034;-75
2022/09/27 09:44:17;;;;;;;5.78;4.20;;;;;;;14.11;81.90;100188.81;5072376;28;20092;-73
2022/09/27 09:46:48;;;;;;;7.88;4.55;;;;;;;14.21;80.35;100186.00;5093719;28;20118;-73
2022/09/27 09:49:46;;;;;;;6.35;3.92;;;;;;;14.08;80.67;100197.22;5093571;28;20066;-73
2022/09/27 09:52:18;;;;;;;4.95;3.70;;;;;;;13.64;81.56;100191.00;5093680;28;20131;-75
2022/09/27 09:55:02;;;;;;;5.03;2.85;;;;;;;13.55;82.28;100211.69;5111984;28;20082;-74
2022/09/27 09:57:38;;;;;;;6.88;3.67;;;;;;;13.46;82.12;100200.97;5093376;28;20035;-74
2022/09/27 10:00:12;;;;;;;4.05;3.47;;;;;;;13.29;82.97;100199.13;5093620;28;20073;-71
2022/09/27 10:02:43;;;;;;;5.43;3.45;;;;;;;13.14;84.77;100191.53;5093865;28;20028;-73
2022/09/27 10:05:22;;;;;;;9.20;6.10;;;;;;;12.78;89.95;100198.72;5093004;28;20126;-71
2022/09/27 10:07:51;;;;;;;7.85;6.88;;;;;;;12.37;96.00;100201.88;5093410;28;20059;-66
2022/09/27 10:10:18;;;;;;;8.40;6.70;;;;;;;12.24;97.60;100191.41;5092337;28;20024;-71
2022/09/27 10:12:45;;;;;;;8.30;6.60;;;;;;;12.19;98.47;100205.34;5092888;28;20031;-71
2022/09/27 10:15:27;;;;;;;10.80;7.28;;;;;;;12.07;99.62;100195.72;5092991;28;20024;-71
2022/09/27 10:17:57;;;;;;;8.75;7.85;;;;;;;12.07;100.00;100197.56;5112267;28;20031;-72
2022/09/27 10:20:51;;;;;;;8.43;7.60;;;;;;;12.05;100.00;100197.72;5093668;28;20032;-73
2022/09/27 10:23:21;;;;;;;11.30;8.13;;;;;;;12.20;100.00;100192.72;5093683;28;20118;-74
2022/09/27 10:25:52;;;;;;;9.23;7.78;;;;;;;12.30;100.00;100189.00;5093784;28;20028;-71
2022/09/27 10:28:37;;;;;;;9.35;8.20;;;;;;;12.37;99.40;100189.25;5093041;28;20039;-72
2022/09/27 10:31:06;;;;;;;8.85;7.28;;;;;;;12.60;99.08;100187.88;5093333;28;20031;-72
2022/09/27 10:33:33;;;;;;;10.05;8.38;;;;;;;12.75;98.74;100190.91;5093787;28;20039;-73
2022/09/27 10:36:00;;;;;;;9.88;8.88;;;;;;;12.90;98.10;100181.31;5092838;28;20498;-74
2022/09/27 10:38:32;;;;;;;14.48;10.07;;;;;;;13.17;96.67;100190.38;5111350;28;20091;-71
2022/09/27 10:41:16;;;;;;;10.88;9.73;;;;;;;13.16;94.87;100188.66;5093237;28;20046;-74
2022/09/27 10:43:42;;;;;;;13.05;9.57;;;;;;;13.45;95.50;100178.53;5092981;28;20034;-72
2022/09/27 10:46:08;;;;;;;12.40;10.40;;;;;;;13.58;93.66;100182.66;5115335;28;20027;-70
2022/09/27 10:48:35;;;;;;;11.38;9.75;;;;;;;13.61;93.09;100183.22;5116869;28;20036;-73
2022/09/27 10:51:04;;;;;;;16.23;11.60;;;;;;;13.42;93.67;100178.81;5116692;28;20453;-72
2022/09/27 10:53:32;;;;;;;16.15;12.27;;;;;;;13.31;94.21;100180.91;5116205;28;20042;-71
2022/09/27 10:55:59;;;;;;;17.42;13.38;;;;;;;13.39;95.27;100186.38;5116008;28;20432;-72
2022/09/27 10:58:36;;;;;;;14.00;12.57;;;;;;;13.43;95.21;100172.41;5098897;28;20032;-72
2022/09/27 11:01:11;;;;;;;21.92;14.27;;;;;;;13.29;95.72;100181.06;5099482;28;20032;-69
2022/09/27 11:03:45;;;;;;;17.67;15.93;;;;;;;13.19;95.14;100183.00;5096877;28;20365;-71
2022/09/27 11:06:23;;;;;;;16.42;13.13;;;;;;;13.60;95.14;100186.06;5096583;28;20085;-74
2022/09/27 11:08:53;;;;;;;18.45;14.70;;;;;;;13.54;95.15;100174.03;5115725;28;20039;-74
2022/09/27 11:11:24;;;;;;;16.02;14.25;;;;;;;13.53;94.98;100178.59;5097285;28;20471;-73
2022/09/27 11:14:16;;;;;;;21.50;16.15;;;;;;;13.51;95.28;100177.06;5097003;28;20365;-73
2022/09/27 11:17:15;;;;;;;18.52;14.88;;;;;;;13.57;95.49;100175.56;5097461;28;20361;-73
2022/09/27 11:19:47;;;;;;;18.95;15.80;;;;;;;13.66;95.95;100180.03;5115759;28;20036;-74
2022/09/27 11:22:41;;;;;;;20.73;15.27;;;;;;;13.71;95.60;100178.56;5115825;28;20036;-73
2022/09/27 11:25:27;;;;;;;18.00;16.23;;;;;;;13.60;96.51;100180.66;5097190;28;20114;-74
2022/09/27 11:28:05;;;;;;;30.42;18.10;;;;;;;13.60;96.00;100180.66;5097160;28;20475;-73
2022/09/27 11:30:54;;;;;;;20.80;18.60;;;;;;;13.77;94.55;100187.88;5096968;28;20072;-73
2022/09/27 11:33:34;;;;;;;20.88;18.27;;;;;;;13.92;94.38;100182.75;5096796;28;20115;-73
2022/09/27 11:36:19;;;;;;;23.27;16.00;;;;;;;14.07;94.24;100190.13;5096949;28;20023;-74
2022/09/27 11:39:18;;;;;;;19.33;15.35;;;;;;;13.93;93.18;100182.59;5097139;28;20024;-74
2022/09/27 11:42:06;;;;;;;18.60;16.02;;;;;;;13.99;93.44;100183.84;5096929;28;20450;-73
2022/09/27 11:45:09;;;;;;;16.73;14.95;;;;;;;14.15;92.68;100179.38;5096766;28;20118;-73
2022/09/27 11:48:08;;;;;;;21.13;17.33;;;;;;;14.30;92.17;100178.78;5076655;28;20035;-74
2022/09/27 11:50:57;;;;;;;19.40;17.13;;;;;;;14.33;91.16;100183.88;5089145;28;20047;-71
2022/09/27 11:53:49;;;;;;;20.67;15.77;;;;;;;14.15;91.55;100173.97;5072604;28;20078;-72